WetterOnline ( https://www.wetteronline.at )

Wetter aktuell Fehmarn

Aktuelles Wetter: Westermarkelsdorf (9m)

6-stündlich | Neueste Meldungen
Ortszeit Temperatur Wetter
So, 29.05. 2:00 11.1° C bewölkt
Sa, 28.05. 20:00 12.6° C wolkig
Sa, 28.05. 14:00 13.5° C leicht bewölkt
Sa, 28.05. 8:00 11.2° C bewölkt
Sa, 28.05. 2:00 10.3° C wolkig
Fr, 27.05. 20:00 11.1° C bewölkt
Fr, 27.05. 14:00 12.0° C wolkig
Fr, 27.05. 8:00 12.4° C leicht bewölkt
Ortszeit Temperatur Wetter
So, 29.05. 7:00 11.0° C wolkig
So, 29.05. 6:40 10.7° C wolkig
So, 29.05. 6:30 10.7° C wolkig
So, 29.05. 6:20 10.7° C wolkig
So, 29.05. 6:10 10.7° C bewölkt
So, 29.05. 6:00 10.7° C bewölkt
So, 29.05. 5:50 10.7° C bewölkt
So, 29.05. 5:30 10.9° C bewölkt
So, 29.05. 5:00 10.7° C bewölkt
So, 29.05. 4:30 10.7° C bewölkt
So, 29.05. 4:00 10.8° C wolkig
Ortszeit Relative Feuchte Sichtweite
So, 29.05. 2:00 85% 23 km
Sa, 28.05. 20:00 79% 35 km
Sa, 28.05. 14:00 71% 25 km
Sa, 28.05. 8:00 77% 26 km
Sa, 28.05. 2:00 79% 35 km
Fr, 27.05. 20:00 79% 30 km
Fr, 27.05. 14:00 78% 27 km
Fr, 27.05. 8:00 77% 30 km
Ortszeit Relative Feuchte Sichtweite
So, 29.05. 7:00 82% 24 km
So, 29.05. 6:40 82% -
So, 29.05. 6:30 82% 24 km
So, 29.05. 6:20 82% -
So, 29.05. 6:10 82% -
So, 29.05. 6:00 83% 24 km
So, 29.05. 5:50 83% -
So, 29.05. 5:30 84% 24 km
So, 29.05. 5:00 84% 25 km
So, 29.05. 4:30 85% 23 km
So, 29.05. 4:00 85% 22 km
Ortszeit Niederschlagsmenge Niederschlagsart
So, 29.05. 2:00 0.0 l/m2 in 6 Std. -
Sa, 28.05. 20:00 0.0 l/m2 in 12 Std. -
Sa, 28.05. 14:00 0.0 l/m2 in 6 Std. -
Sa, 28.05. 8:00 0.3 l/m2 in 12 Std. -
Sa, 28.05. 2:00 0.3 l/m2 in 6 Std. Regen
Fr, 27.05. 20:00 1 l/m2 in 12 Std. Regen
Fr, 27.05. 14:00 0.2 l/m2 in 6 Std. Regen
Fr, 27.05. 8:00 5 l/m2 in 12 Std. -
Ortszeit Niederschlagsmenge Niederschlagsart
So, 29.05. 7:00 0.0 l/m2 in 1 Std. -
So, 29.05. 6:40 keine Meldung -
So, 29.05. 6:30 0.0 l/m2 in 1 Std. -
So, 29.05. 6:20 keine Meldung -
So, 29.05. 6:10 keine Meldung -
So, 29.05. 6:00 0.0 l/m2 in 1 Std. -
So, 29.05. 5:50 keine Meldung -
So, 29.05. 5:30 0.0 l/m2 in 1 Std. -
So, 29.05. 5:00 0.0 l/m2 in 1 Std. -
So, 29.05. 4:30 0.0 l/m2 in 1 Std. -
So, 29.05. 4:00 0.0 l/m2 in 1 Std. -
Ortszeit Stärke Spitze Richtung
km/h Bft. km/h Grad Sektor
So, 29.05. 2:00 28 4 46 290° W
Sa, 28.05. 20:00 40 6 61 270° W
Sa, 28.05. 14:00 43 6 68 280° W
Sa, 28.05. 8:00 50 7 72 300° NW
Sa, 28.05. 2:00 57 7 80 280° W
Fr, 27.05. 20:00 52 7 85 270° W
Fr, 27.05. 14:00 47 6 101 270° W
Fr, 27.05. 8:00 47 6 68 280° W
Ortszeit Stärke Spitze Richtung
km/h Bft. km/h Grad Sektor
So, 29.05. 7:00 18 3 25 250° W
So, 29.05. 6:40 18 3 - 260° W
So, 29.05. 6:30 18 3 25 270° W
So, 29.05. 6:20 18 3 - 270° W
So, 29.05. 6:10 18 3 - 270° W
So, 29.05. 6:00 19 3 26 280° W
So, 29.05. 5:50 19 3 - 280° W
So, 29.05. 5:30 18 3 25 280° W
So, 29.05. 5:00 20 4 30 280° W
So, 29.05. 4:30 24 4 30 280° W
So, 29.05. 4:00 24 4 31 280° W
Ortszeit Untergrenze Bedeckung Gattung
total tief tief mittel hoch
So, 29.05. 2:00 390 m 7/8 7/8 - - -
Sa, 28.05. 20:00 630 m 8/8 1/8 - - -
Sa, 28.05. 14:00 4200 m 3/8 3/8 - - -
Sa, 28.05. 8:00 660 m 7/8 7/8 - - -
Sa, 28.05. 2:00 690 m 7/8 3/8 - - -
Fr, 27.05. 20:00 1410 m 7/8 7/8 - - -
Fr, 27.05. 14:00 1500 m 7/8 3/8 - - -
Fr, 27.05. 8:00 630 m 3/8 3/8 - - -
Ortszeit Bedeckungsgrad in Achtel und Wolkenuntergrenze
So, 29.05. 7:00 2(420m) 6(2400m)
So, 29.05. 6:40 5
So, 29.05. 6:30 5(420m)
So, 29.05. 6:20 5(420m)
So, 29.05. 6:10 7
So, 29.05. 6:00 7(420m)
So, 29.05. 5:50 7(420m)
So, 29.05. 5:30 7(420m) 7(3300m)
So, 29.05. 5:00 7(450m) 7(3300m) 7(3900m)
So, 29.05. 4:30 4(450m) 7(3300m) 8(3900m)
So, 29.05. 4:00 1(450m) 7(3300m) 8(3900m)
Ortszeit Luftdruck NN (hPa) Tendenz (hPa in 3 Std.)
So, 29.05. 2:00 1011 - 0,6
Sa, 28.05. 20:00 1012 0,0
Sa, 28.05. 14:00 1011 + 0,7
Sa, 28.05. 8:00 1009 + 0,8
Sa, 28.05. 2:00 1009 - 1,7
Fr, 27.05. 20:00 1011 - 0,4
Fr, 27.05. 14:00 1012 + 0,2
Fr, 27.05. 8:00 1012 + 0,9
Ortszeit Luftdruck NN (hPa) Tendenz (hPa in 3 Std.)
So, 29.05. 7:00 1010 - 0,6
So, 29.05. 6:40 1010 keine Meldung
So, 29.05. 6:30 1010 - 0,5
So, 29.05. 6:20 1010 keine Meldung
So, 29.05. 6:10 1010 keine Meldung
So, 29.05. 6:00 1010 - 0,5
So, 29.05. 5:50 1010 keine Meldung
So, 29.05. 5:30 1010 - 0,7
So, 29.05. 5:00 1010 - 0,8
So, 29.05. 4:30 1010 - 0,7
So, 29.05. 4:00 1010 - 0,8
Ortszeit Schneehöhe (cm)
So, 29.05. 2:00 0
Sa, 28.05. 20:00 0
Sa, 28.05. 14:00 0
Sa, 28.05. 8:00 0
Sa, 28.05. 2:00 0
Fr, 27.05. 20:00 0
Fr, 27.05. 14:00 0
Fr, 27.05. 8:00 0
Ortszeit Schneehöhe (cm)
So, 29.05. 7:00 0
So, 29.05. 6:40 0
So, 29.05. 6:30 0
So, 29.05. 6:20 0
So, 29.05. 6:10 0
So, 29.05. 6:00 0
So, 29.05. 5:50 0
So, 29.05. 5:30 0
So, 29.05. 5:00 0
So, 29.05. 4:30 0
So, 29.05. 4:00 0
Link zu dieser Seite / Seite empfehlen

Das Wetter in ...